createdAt,value
2022-11-04T00:01:59.535Z,13.01
2022-11-04T00:12:21.290Z,13.00
2022-11-04T00:22:46.659Z,13.04
2022-11-04T00:33:16.832Z,12.92
2022-11-04T00:43:19.536Z,12.96
2022-11-04T00:53:23.507Z,12.96
2022-11-04T01:03:26.208Z,12.74
2022-11-04T01:13:30.352Z,12.33
2022-11-04T01:23:34.661Z,12.21
2022-11-04T01:33:39.575Z,12.30
2022-11-04T01:43:45.575Z,12.20
2022-11-04T01:53:52.921Z,12.31
2022-11-04T02:04:20.057Z,12.29
2022-11-04T02:14:24.380Z,12.32
2022-11-04T02:24:55.832Z,12.02
2022-11-04T02:35:05.304Z,11.90
2022-11-04T02:45:17.521Z,11.77
2022-11-04T02:55:25.953Z,11.77
2022-11-04T03:05:33.871Z,11.71
2022-11-04T03:15:40.687Z,11.75
2022-11-04T03:25:46.678Z,11.62
2022-11-04T03:35:50.718Z,11.69
2022-11-04T03:45:53.472Z,11.85
2022-11-04T03:56:13.670Z,11.89
2022-11-04T04:06:18.897Z,11.76
2022-11-04T04:16:31.306Z,11.71
2022-11-04T04:26:54.129Z,11.83
2022-11-04T04:37:03.131Z,11.53
2022-11-04T04:47:07.011Z,11.30
2022-11-04T04:57:10.974Z,11.10
2022-11-04T05:07:13.605Z,11.26
2022-11-04T05:17:17.902Z,10.85
2022-11-04T05:27:20.631Z,10.78
2022-11-04T05:37:24.898Z,10.73
2022-11-04T05:47:27.582Z,10.77
2022-11-04T05:57:31.554Z,10.83
2022-11-04T06:07:34.411Z,10.78
2022-11-04T06:17:38.981Z,10.65
2022-11-04T06:27:41.591Z,10.60
2022-11-04T06:37:45.750Z,10.60
2022-11-04T06:47:48.571Z,10.56
2022-11-04T06:57:52.549Z,10.55
2022-11-04T07:07:55.341Z,10.68
2022-11-04T07:17:59.654Z,10.77
2022-11-04T07:28:02.701Z,10.87
2022-11-04T07:38:07.258Z,10.82
2022-11-04T07:48:10.613Z,11.01
2022-11-04T07:58:15.000Z,10.98
2022-11-04T08:08:17.803Z,10.96
2022-11-04T08:18:21.948Z,11.29
2022-11-04T08:28:24.949Z,10.97
2022-11-04T08:38:29.636Z,11.28
2022-11-04T08:48:32.414Z,11.57
2022-11-04T08:58:36.389Z,11.81
2022-11-04T09:08:39.569Z,11.85
2022-11-04T09:18:44.056Z,12.25
2022-11-04T09:28:46.753Z,12.99
2022-11-04T09:38:50.951Z,13.06
2022-11-04T09:48:56.154Z,13.10
2022-11-04T09:59:00.333Z,13.20
2022-11-04T10:09:18.235Z,13.84
2022-11-04T10:19:36.532Z,13.83
2022-11-04T10:29:44.009Z,13.77
2022-11-04T10:39:48.516Z,13.65
2022-11-04T11:00:37.239Z,14.83
2022-11-04T11:10:52.763Z,23.46
2022-11-04T11:21:09.586Z,23.29
2022-11-04T11:31:23.246Z,16.44
2022-11-04T11:41:31.524Z,26.11
2022-11-04T11:51:36.834Z,16.11
2022-11-04T12:01:46.833Z,14.75
2022-11-04T12:12:02.943Z,20.13
2022-11-04T12:22:18.657Z,16.69
2022-11-04T12:32:29.026Z,14.96
2022-11-04T12:42:43.110Z,14.82
2022-11-04T12:52:55.648Z,14.48
2022-11-04T13:03:04.563Z,14.74
2022-11-04T13:13:08.990Z,16.10
2022-11-04T13:23:19.668Z,17.28
2022-11-04T13:33:29.956Z,15.39
2022-11-04T13:43:41.785Z,12.71
2022-11-04T13:53:47.635Z,11.87
2022-11-04T14:03:55.441Z,12.90
2022-11-04T14:14:17.193Z,12.66
2022-11-04T14:24:21.341Z,12.34
2022-11-04T14:34:27.057Z,12.12
2022-11-04T14:44:35.487Z,12.29
2022-11-04T14:54:38.466Z,12.40
2022-11-04T15:04:48.761Z,12.36
2022-11-04T15:14:52.301Z,12.32
2022-11-04T15:24:56.647Z,12.14
2022-11-04T15:34:59.759Z,11.99
2022-11-04T15:45:26.918Z,11.86
2022-11-04T15:55:32.088Z,11.64
2022-11-04T16:05:38.177Z,11.46
2022-11-04T16:15:43.278Z,11.30
2022-11-04T16:25:47.618Z,11.15
2022-11-04T16:35:50.252Z,10.99
2022-11-04T16:45:54.507Z,10.88
2022-11-04T16:55:58.382Z,10.67
2022-11-04T17:06:02.570Z,10.45
2022-11-04T17:16:06.668Z,10.37
2022-11-04T17:26:10.729Z,10.37
2022-11-04T17:36:17.697Z,10.33
2022-11-04T17:46:34.842Z,10.18
2022-11-04T17:56:38.598Z,10.22
2022-11-04T18:06:42.608Z,10.12
2022-11-04T18:16:47.244Z,10.00
2022-11-04T18:26:52.062Z,9.92
2022-11-04T18:36:56.089Z,9.71
2022-11-04T18:47:00.149Z,9.63
2022-11-04T18:57:03.939Z,9.49
2022-11-04T19:07:07.986Z,9.31
2022-11-04T19:17:10.886Z,9.21
2022-11-04T19:27:15.177Z,9.18
2022-11-04T19:37:17.838Z,9.14
2022-11-04T19:47:22.005Z,9.05
2022-11-04T19:57:24.794Z,8.96
2022-11-04T20:07:28.925Z,8.90
2022-11-04T20:17:32.588Z,8.83
2022-11-04T20:27:36.950Z,8.77
2022-11-04T20:37:39.939Z,8.70
2022-11-04T20:47:44.114Z,8.77
2022-11-04T20:57:46.722Z,8.78
2022-11-04T21:07:50.746Z,8.79
2022-11-04T21:17:53.364Z,8.82
2022-11-04T21:27:57.385Z,8.86
2022-11-04T21:38:00.092Z,8.74
2022-11-04T21:48:05.392Z,8.62
2022-11-04T21:58:08.311Z,8.45
2022-11-04T22:08:18.263Z,8.35
2022-11-04T22:18:20.898Z,8.28
2022-11-04T22:28:25.020Z,8.19
2022-11-04T22:38:28.072Z,8.13
2022-11-04T22:48:32.289Z,7.99
2022-11-04T22:58:35.783Z,7.96
2022-11-04T23:08:41.289Z,7.88
2022-11-04T23:18:44.524Z,7.78
2022-11-04T23:29:05.997Z,7.70
2022-11-04T23:39:08.624Z,7.64
2022-11-04T23:49:30.683Z,7.59
2022-11-04T23:59:50.882Z,7.61
